Time;durP1;ratioP1;P1;durP2;ratioP2;P2;SDS_P1;SDS_P2;PMS_P1;PMS_P2;Temp;Humidity;BMP_temperature;BMP_pressure;BME280_temperature;BME280_humidity;BME280_pressure;Samples;Min_cycle;Max_cycle;Signal;HPM_P1;HPM_P2
2022/07/14 00:01:07;;;;;;;8.40;2.28;;;;;;;24.32;45.73;102185.34;4723493;30;20044;-85
2022/07/14 00:03:33;;;;;;;7.45;2.42;;;;;;;24.38;45.36;102187.28;4725436;30;20045;-83
2022/07/14 00:05:58;;;;;;;7.15;2.45;;;;;;;24.35;45.75;102185.81;4710101;30;20049;-84
2022/07/14 00:08:24;;;;;;;5.75;2.20;;;;;;;24.36;45.83;102190.13;4723533;30;20657;-83
2022/07/14 00:10:50;;;;;;;5.82;2.60;;;;;;;24.28;46.09;102190.16;4721350;30;20052;-84
2022/07/14 00:13:15;;;;;;;6.13;2.40;;;;;;;24.40;45.71;102179.94;4724684;30;20048;-84
2022/07/14 00:15:41;;;;;;;4.68;2.40;;;;;;;24.35;45.92;102177.81;4711780;30;20067;-83
2022/07/14 00:18:06;;;;;;;7.97;2.17;;;;;;;24.28;45.93;102176.88;4723775;30;20079;-83
2022/07/14 00:20:32;;;;;;;7.28;2.38;;;;;;;24.33;45.92;102177.19;4725196;30;20044;-84
2022/07/14 00:22:58;;;;;;;8.75;2.63;;;;;;;24.33;45.90;102173.69;4728109;30;20051;-83
2022/07/14 00:25:24;;;;;;;8.63;2.83;;;;;;;24.24;46.05;102166.75;4727403;30;20071;-84
2022/07/14 00:27:50;;;;;;;5.72;2.55;;;;;;;24.26;46.12;102170.88;4707593;30;20052;-84
2022/07/14 00:30:16;;;;;;;5.05;2.20;;;;;;;24.25;45.84;102171.91;4707982;30;20545;-83
2022/07/14 00:32:42;;;;;;;5.75;2.25;;;;;;;24.27;45.76;102175.22;4722478;30;20049;-84
2022/07/14 00:35:08;;;;;;;7.40;2.50;;;;;;;24.23;46.12;102170.38;4729537;30;20053;-84
2022/07/14 00:37:34;;;;;;;4.55;2.28;;;;;;;24.25;45.90;102171.06;4727887;30;21292;-84
2022/07/14 00:40:04;;;;;;;7.18;2.33;;;;;;;24.27;45.93;102180.53;4735688;30;20047;-84
2022/07/14 00:42:33;;;;;;;6.10;2.55;;;;;;;24.17;46.02;102174.59;4727141;30;20032;-83
2022/07/14 00:45:07;;;;;;;8.60;2.67;;;;;;;24.12;46.38;102168.97;4726483;30;20043;-84
2022/07/14 00:47:33;;;;;;;7.68;2.95;;;;;;;24.20;46.13;102171.56;4721604;30;20138;-84
2022/07/14 00:49:58;;;;;;;5.72;2.33;;;;;;;24.18;45.67;102164.78;4721788;30;20060;-83
2022/07/14 00:52:26;;;;;;;4.82;2.20;;;;;;;24.23;45.91;102167.72;4722617;30;20072;-84
2022/07/14 00:54:53;;;;;;;7.43;2.55;;;;;;;24.21;45.98;102172.41;4714255;30;20036;-85
2022/07/14 00:57:20;;;;;;;6.65;2.28;;;;;;;24.23;45.83;102165.06;4711524;30;20080;-83
2022/07/14 00:59:47;;;;;;;7.70;2.40;;;;;;;24.32;45.49;102170.19;4727852;30;20056;-84
2022/07/14 01:02:13;;;;;;;7.65;2.40;;;;;;;24.32;45.84;102164.88;4724650;30;20056;-84
2022/07/14 01:04:38;;;;;;;6.95;2.42;;;;;;;24.29;45.80;102165.25;4721255;30;20048;-84
2022/07/14 01:07:04;;;;;;;8.63;3.00;;;;;;;24.22;45.88;102161.56;4725933;30;20424;-84
2022/07/14 01:09:29;;;;;;;9.20;2.70;;;;;;;24.17;45.85;102150.63;4727859;30;20053;-83
2022/07/14 01:11:57;;;;;;;7.65;2.90;;;;;;;24.13;46.11;102160.00;4722232;30;20130;-84
2022/07/14 01:14:25;;;;;;;5.80;2.38;;;;;;;24.15;45.95;102157.16;4725385;30;20063;-84
2022/07/14 01:16:56;;;;;;;5.63;2.38;;;;;;;24.18;45.59;102152.28;4724671;30;20073;-84
2022/07/14 01:19:23;;;;;;;;;;;;;;;24.21;45.90;102162.59;4726020;30;20123;-84
2022/07/14 01:21:53;;;;;;;4.97;2.53;;;;;;;24.21;45.84;102162.59;4724141;30;19926;-84
2022/07/14 01:24:19;;;;;;;5.93;2.20;;;;;;;24.10;45.98;102147.88;4721733;30;20201;-84
2022/07/14 01:26:45;;;;;;;8.95;2.40;;;;;;;24.18;46.06;102154.13;4725543;30;20049;-85
2022/07/14 01:29:11;;;;;;;6.35;2.40;;;;;;;24.14;45.98;102153.66;4723401;30;20048;-84
2022/07/14 01:31:38;;;;;;;9.98;2.85;;;;;;;24.08;45.68;102141.91;4691091;30;20064;-83
2022/07/14 01:34:03;;;;;;;7.65;2.85;;;;;;;24.10;45.77;102142.53;4724429;30;20040;-84
2022/07/14 01:36:29;;;;;;;12.35;3.03;;;;;;;24.09;45.98;102143.56;4709437;30;20197;-84
2022/07/14 01:38:54;;;;;;;6.22;2.38;;;;;;;23.93;46.08;102130.34;4725640;30;20059;-83
2022/07/14 01:41:21;;;;;;;6.55;2.22;;;;;;;23.99;45.86;102136.78;4726487;30;20124;-84
2022/07/14 01:43:48;;;;;;;6.75;2.53;;;;;;;24.07;45.70;102140.25;4726375;30;20097;-84
2022/07/14 01:46:14;;;;;;;6.70;2.75;;;;;;;24.11;45.59;102140.72;4725705;30;20110;-84
2022/07/14 01:48:39;;;;;;;8.38;2.60;;;;;;;24.11;45.81;102143.38;4708740;30;20055;-84
2022/07/14 01:51:05;;;;;;;5.80;2.83;;;;;;;24.06;45.74;102141.25;4707675;30;20443;-84
2022/07/14 01:53:32;;;;;;;7.78;2.38;;;;;;;24.07;45.33;102142.91;4707587;30;20061;-84
2022/07/14 01:56:00;;;;;;;8.18;2.58;;;;;;;24.01;45.76;102145.41;4726562;30;20044;-84
2022/07/14 01:58:26;;;;;;;4.47;2.22;;;;;;;23.99;45.96;102139.44;4721519;30;20033;-83
2022/07/14 02:03:37;;;;;;;6.38;2.70;;;;;;;24.03;45.76;102138.09;4725280;30;20044;-84
2022/07/14 02:06:04;;;;;;;6.78;2.42;;;;;;;24.09;45.49;102142.72;4709886;30;20416;-84
2022/07/14 02:08:30;;;;;;;7.05;2.53;;;;;;;24.01;45.75;102132.94;4720962;30;20052;-84
2022/07/14 02:13:39;;;;;;;8.02;2.50;;;;;;;24.04;45.93;102139.75;4719264;30;20101;-84
2022/07/14 02:16:08;;;;;;;6.80;2.50;;;;;;;24.05;45.79;102136.91;4723370;30;20638;-84
2022/07/14 02:18:34;;;;;;;6.25;2.40;;;;;;;24.06;45.56;102127.13;4722588;30;20044;-84
2022/07/14 02:21:00;;;;;;;4.32;2.10;;;;;;;24.00;45.92;102138.44;4724036;30;20599;-85
2022/07/14 02:23:25;;;;;;;6.32;2.60;;;;;;;24.01;45.84;102135.59;4708302;30;20052;-83
2022/07/14 02:25:51;;;;;;;9.40;2.88;;;;;;;23.96;45.87;102140.63;4732645;30;20045;-83
2022/07/14 02:28:17;;;;;;;8.73;2.88;;;;;;;24.03;45.83;102141.56;4710399;30;20052;-83
2022/07/14 02:30:45;;;;;;;4.68;2.10;;;;;;;23.94;45.95;102137.31;4708271;30;20793;-84
2022/07/14 02:33:10;;;;;;;3.75;2.00;;;;;;;24.03;45.90;102143.41;4724693;30;20057;-83
2022/07/14 02:35:36;;;;;;;5.35;2.28;;;;;;;24.04;45.73;102140.56;4720752;30;20618;-83
2022/07/14 02:38:02;;;;;;;6.30;2.40;;;;;;;24.01;45.63;102134.78;4710467;30;20131;-83
2022/07/14 02:40:28;;;;;;;5.88;2.30;;;;;;;23.93;45.76;102138.31;4721595;30;20047;-83
2022/07/14 02:42:54;;;;;;;5.72;2.30;;;;;;;24.03;45.71;102146.91;4693258;30;20068;-84
2022/07/14 02:45:19;;;;;;;5.32;2.40;;;;;;;23.96;45.68;102137.97;4722955;30;20508;-83
2022/07/14 02:47:45;;;;;;;6.82;2.42;;;;;;;23.81;46.22;102145.03;4725040;30;20435;-83
2022/07/14 02:50:11;;;;;;;6.32;2.65;;;;;;;23.97;45.69;102144.94;4718544;30;20048;-84
2022/07/14 02:52:39;;;;;;;7.13;2.55;;;;;;;24.05;45.64;102144.06;4703445;30;20064;-83
2022/07/14 02:55:05;;;;;;;4.03;1.85;;;;;;;24.03;45.38;102144.22;4721970;30;20044;-83
2022/07/14 02:57:33;;;;;;;6.40;2.38;;;;;;;23.96;45.81;102137.97;4720486;30;20397;-84
2022/07/14 02:59:58;;;;;;;3.40;2.33;;;;;;;23.87;45.75;102138.19;4707408;30;20104;-84
2022/07/14 03:02:25;;;;;;;3.95;2.47;;;;;;;23.96;45.62;102137.16;4711182;30;20051;-83
2022/07/14 03:04:51;;;;;;;5.88;2.30;;;;;;;23.98;45.54;102143.94;4707494;30;20044;-83
2022/07/14 03:07:17;;;;;;;5.38;2.05;;;;;;;23.94;45.45;102137.31;4717917;30;20032;-84
2022/07/14 03:09:43;;;;;;;7.20;2.28;;;;;;;23.88;45.62;102132.72;4725096;30;20041;-83
2022/07/14 03:12:09;;;;;;;7.60;2.83;;;;;;;23.94;45.70;102139.16;4708021;30;20459;-83
2022/07/14 03:14:38;;;;;;;4.40;2.50;;;;;;;23.92;45.81;102136.66;4703047;30;20515;-83
2022/07/14 03:17:04;;;;;;;5.95;2.40;;;;;;;23.91;45.76;102136.84;4707229;30;20055;-84
2022/07/14 03:19:29;;;;;;;4.50;2.00;;;;;;;23.89;45.60;102145.00;4705428;30;20050;-83
2022/07/14 03:21:56;;;;;;;6.32;2.40;;;;;;;23.87;45.79;102149.66;4722283;30;20040;-83
2022/07/14 03:24:22;;;;;;;5.70;2.30;;;;;;;23.98;45.69;102151.09;4708319;30;20040;-83
2022/07/14 03:26:48;;;;;;;4.82;2.40;;;;;;;23.93;45.58;102154.28;4717364;30;20055;-83
2022/07/14 03:29:14;;;;;;;5.32;1.98;;;;;;;23.88;45.57;102150.47;4721698;30;20099;-83
2022/07/14 03:31:40;;;;;;;8.15;2.70;;;;;;;23.90;45.56;102157.31;4705960;30;20041;-84
2022/07/14 03:34:12;;;;;;;;;;;;;;;23.89;45.75;102144.19;4736193;30;20048;-83
2022/07/14 03:36:38;;;;;;;5.68;2.58;;;;;;;23.92;45.63;102146.50;4719005;30;19927;-83
2022/07/14 03:39:04;;;;;;;5.57;2.58;;;;;;;23.84;45.74;102152.66;4708322;30;20045;-83
2022/07/14 03:41:29;;;;;;;8.45;2.55;;;;;;;23.79;45.76;102142.56;4707689;30;20162;-83
2022/07/14 03:43:55;;;;;;;5.47;2.78;;;;;;;23.78;45.68;102148.06;4695285;30;20075;-83
2022/07/14 03:46:21;;;;;;;5.50;2.60;;;;;;;23.86;45.61;102160.47;4720199;30;20151;-83
2022/07/14 03:49:01;;;;;;;4.85;2.60;;;;;;;23.80;45.63;102151.38;4724225;30;20078;-83
2022/07/14 03:51:27;;;;;;;7.07;2.53;;;;;;;23.82;45.60;102154.66;4724231;30;20055;-83
2022/07/14 03:53:54;;;;;;;5.30;2.25;;;;;;;23.76;45.90;102160.69;4695069;30;20045;-83
2022/07/14 03:56:20;;;;;;;5.20;2.13;;;;;;;23.87;45.47;102154.97;4710457;30;20040;-83
2022/07/14 03:58:47;;;;;;;4.30;2.30;;;;;;;23.93;45.34;102154.28;4723934;30;20049;-83
2022/07/14 04:01:15;;;;;;;5.35;2.30;;;;;;;23.79;45.50;102152.38;4727021;30;20259;-83
2022/07/14 04:03:43;;;;;;;5.00;2.55;;;;;;;23.91;45.36;102156.31;4726318;30;20091;-84
2022/07/14 04:06:08;;;;;;;3.60;2.35;;;;;;;23.96;45.43;102159.25;4727699;30;20048;-83
2022/07/14 04:08:34;;;;;;;4.65;2.25;;;;;;;23.87;45.42;102151.47;4727593;30;20040;-84
2022/07/14 04:11:02;;;;;;;5.15;2.25;;;;;;;23.74;45.90;102150.22;4707670;30;20052;-83
2022/07/14 04:13:29;;;;;;;6.25;3.40;;;;;;;23.76;45.42;102152.72;4682332;30;20037;-83
2022/07/14 04:15:55;;;;;;;6.07;2.40;;;;;;;23.64;45.57;102146.13;4713919;30;20052;-84
2022/07/14 04:18:20;;;;;;;3.03;2.00;;;;;;;23.79;45.26;102147.88;4723056;30;20095;-85
2022/07/14 04:20:49;;;;;;;6.75;2.10;;;;;;;23.68;45.23;102144.75;4724342;30;20049;-83
2022/07/14 04:23:16;;;;;;;4.10;2.10;;;;;;;23.73;45.61;102151.25;4726861;30;20883;-83
2022/07/14 04:25:41;;;;;;;3.88;2.00;;;;;;;23.70;45.43;102146.28;4728084;30;20047;-83
2022/07/14 04:28:07;;;;;;;5.68;2.42;;;;;;;23.73;45.26;102143.25;4725045;30;20373;-83
2022/07/14 04:30:33;;;;;;;5.45;2.13;;;;;;;23.79;45.22;102131.09;4715315;30;20493;-84
2022/07/14 04:32:58;;;;;;;4.68;1.98;;;;;;;23.65;45.48;102145.13;4703919;30;20103;-84
2022/07/14 04:35:24;;;;;;;5.75;2.35;;;;;;;23.66;45.38;102131.63;4727291;30;20048;-83
2022/07/14 04:37:49;;;;;;;5.18;2.33;;;;;;;23.79;45.15;102147.03;4711461;30;20048;-83
2022/07/14 04:40:26;;;;;;;6.35;2.30;;;;;;;23.70;45.58;102143.63;4711059;30;20040;-84
2022/07/14 04:42:52;;;;;;;4.78;2.20;;;;;;;23.72;45.52;102156.75;4696667;30;20048;-84
2022/07/14 04:45:18;;;;;;;6.50;2.47;;;;;;;23.71;45.38;102161.22;4712014;30;20045;-84
2022/07/14 04:47:45;;;;;;;4.97;2.75;;;;;;;23.64;45.45;102159.41;4711585;30;20052;-84
2022/07/14 04:52:57;;;;;;;6.65;2.47;;;;;;;23.70;45.31;102158.75;4728508;30;20508;-84
2022/07/14 04:55:49;;;;;;;5.47;2.20;;;;;;;23.68;45.29;102161.53;4722531;30;20595;-84
2022/07/14 04:58:25;;;;;;;5.78;2.10;;;;;;;23.69;45.26;102157.88;4725080;30;20044;-84
2022/07/14 05:00:52;;;;;;;4.40;2.30;;;;;;;23.59;45.39;102156.44;4725265;30;20520;-83
2022/07/14 05:03:18;;;;;;;4.82;2.20;;;;;;;23.63;45.26;102152.44;4724664;30;20040;-84
2022/07/14 05:05:43;;;;;;;3.22;1.98;;;;;;;23.63;45.35;102152.44;4726189;30;20590;-83
2022/07/14 05:08:09;;;;;;;4.43;2.22;;;;;;;23.70;45.03;102148.09;4710873;30;20048;-83
2022/07/14 05:10:43;;;;;;;3.75;2.47;;;;;;;23.64;45.35;102148.78;4723902;30;20074;-83
2022/07/14 05:13:10;;;;;;;7.03;2.63;;;;;;;23.64;45.57;102151.44;4708831;30;20079;-85
2022/07/14 05:15:36;;;;;;;4.45;2.38;;;;;;;23.62;45.33;102148.13;4721549;30;20144;-85
2022/07/14 05:18:03;;;;;;;5.05;2.30;;;;;;;23.60;45.68;102158.09;4711592;30;20198;-85
2022/07/14 05:20:29;;;;;;;4.20;1.77;;;;;;;23.63;45.61;102155.94;4722995;30;20053;-85
2022/07/14 05:22:55;;;;;;;4.90;2.35;;;;;;;23.58;45.68;102160.13;4738120;30;20103;-84
2022/07/14 05:25:21;;;;;;;5.55;2.13;;;;;;;23.57;45.32;102148.66;4711142;30;20045;-85
2022/07/14 05:27:46;;;;;;;5.35;2.20;;;;;;;23.50;45.24;102151.13;4694232;30;20515;-86
2022/07/14 05:30:25;;;;;;;4.57;2.03;;;;;;;23.52;45.07;102150.97;4725930;30;20120;-85
2022/07/14 05:32:53;;;;;;;5.13;2.10;;;;;;;23.57;44.83;102153.13;4724706;30;20052;-85
2022/07/14 05:35:19;;;;;;;7.35;2.22;;;;;;;23.48;45.17;102142.50;4725549;30;20104;-87
2022/07/14 05:37:46;;;;;;;5.95;2.30;;;;;;;23.75;43.35;102149.22;4722470;30;20809;-84
2022/07/14 05:40:12;;;;;;;6.53;2.33;;;;;;;23.78;44.24;102153.38;4722869;30;20102;-84
2022/07/14 05:42:38;;;;;;;7.07;2.00;;;;;;;23.97;44.13;102157.41;4718378;30;20033;-84
2022/07/14 05:45:04;;;;;;;5.57;2.08;;;;;;;24.01;44.18;102161.38;4719533;30;20068;-84
2022/07/14 05:47:30;;;;;;;3.35;2.20;;;;;;;23.99;44.43;102150.09;4720909;30;20462;-84
2022/07/14 05:49:56;;;;;;;2.53;1.88;;;;;;;24.09;44.23;102145.38;4720191;30;20044;-84
2022/07/14 05:52:22;;;;;;;3.85;2.10;;;;;;;24.15;44.33;102146.50;4705792;30;20067;-86
2022/07/14 05:54:48;;;;;;;3.70;1.83;;;;;;;24.15;44.22;102151.81;4722110;30;20058;-86
2022/07/14 05:57:15;;;;;;;4.82;2.00;;;;;;;24.21;44.22;102148.44;4719514;30;20044;-86
2022/07/14 05:59:42;;;;;;;4.05;1.95;;;;;;;24.08;44.53;102149.06;4717548;30;20040;-86
2022/07/14 06:02:07;;;;;;;3.72;1.70;;;;;;;24.15;44.55;102163.31;4726622;30;20047;-86
2022/07/14 06:04:33;;;;;;;4.03;1.67;;;;;;;24.21;44.62;102153.78;4708447;30;20044;-86
2022/07/14 06:07:01;;;;;;;4.85;2.10;;;;;;;24.23;44.44;102162.41;4722701;30;20174;-86
2022/07/14 06:09:26;;;;;;;4.55;2.10;;;;;;;24.15;44.55;102152.66;4689125;30;20124;-86
2022/07/14 06:11:52;;;;;;;2.88;1.75;;;;;;;24.23;44.62;102165.06;4691550;30;20070;-86
2022/07/14 06:14:21;;;;;;;3.85;1.90;;;;;;;24.25;44.68;102165.75;4723180;30;20084;-86
2022/07/14 06:16:47;;;;;;;2.17;1.50;;;;;;;24.27;44.46;102163.72;4720989;30;20164;-84
2022/07/14 06:19:12;;;;;;;2.85;1.83;;;;;;;24.18;44.73;102154.13;4696038;30;20075;-85
2022/07/14 06:21:39;;;;;;;2.45;1.65;;;;;;;24.29;44.71;102161.75;4723586;30;20043;-85
2022/07/14 06:24:05;;;;;;;2.40;1.50;;;;;;;24.29;44.69;102154.59;4695552;30;20056;-83
2022/07/14 06:26:31;;;;;;;3.13;1.65;;;;;;;24.28;44.83;102157.41;4721921;30;20488;-85
2022/07/14 06:28:56;;;;;;;3.78;2.35;;;;;;;24.29;44.68;102156.41;4724611;30;20090;-83
2022/07/14 06:31:22;;;;;;;2.80;1.80;;;;;;;24.30;44.90;102155.41;4696276;30;20049;-87
2022/07/14 06:33:47;;;;;;;2.42;1.60;;;;;;;24.26;44.87;102152.25;4716296;30;20103;-86
2022/07/14 06:36:38;;;;;;;2.25;1.50;;;;;;;24.35;44.66;102153.88;4723933;30;20143;-84
2022/07/14 06:39:06;;;;;;;3.08;1.75;;;;;;;24.35;44.48;102139.72;4708597;30;20117;-84
2022/07/14 06:41:32;;;;;;;3.05;1.73;;;;;;;24.44;44.37;102143.19;4697592;30;20048;-84
2022/07/14 06:43:59;;;;;;;1.70;1.60;;;;;;;24.44;44.58;102144.00;4717777;30;20103;-84
2022/07/14 06:46:24;;;;;;;2.03;1.48;;;;;;;24.48;44.31;102141.81;4731835;30;20052;-85
2022/07/14 06:48:50;;;;;;;3.20;2.00;;;;;;;24.48;44.41;102131.97;4718910;30;20497;-84
2022/07/14 06:51:15;;;;;;;1.90;1.65;;;;;;;24.51;44.38;102136.94;4722490;30;20041;-85
2022/07/14 06:53:42;;;;;;;2.83;1.75;;;;;;;24.51;44.54;102130.78;4722844;30;20128;-85
2022/07/14 06:56:07;;;;;;;2.22;1.70;;;;;;;24.54;44.55;102131.25;4721612;30;20154;-85
2022/07/14 06:58:33;;;;;;;5.10;2.42;;;;;;;24.53;44.43;102123.44;4720051;30;20051;-85
2022/07/14 07:00:58;;;;;;;3.55;1.80;;;;;;;24.65;44.08;102135.31;4722187;30;20539;-84
2022/07/14 07:03:24;;;;;;;2.85;1.73;;;;;;;24.68;44.11;102134.97;4720354;30;20106;-85
2022/07/14 07:08:33;;;;;;;1.70;1.50;;;;;;;24.77;44.03;102127.72;4719198;30;20510;-85
2022/07/14 07:10:59;;;;;;;3.10;1.63;;;;;;;24.76;43.95;102129.53;4716024;30;20049;-84
2022/07/14 07:13:26;;;;;;;2.05;1.67;;;;;;;24.83;44.01;102138.50;4717712;30;20053;-85
2022/07/14 07:15:53;;;;;;;3.53;1.70;;;;;;;24.87;43.79;102141.59;4722202;30;20143;-85
2022/07/14 07:18:18;;;;;;;4.03;1.48;;;;;;;24.89;43.74;102121.75;4713413;30;20054;-87
2022/07/14 07:20:44;;;;;;;3.58;1.60;;;;;;;24.90;44.05;102127.91;4721888;30;20576;-86
2022/07/14 07:23:10;;;;;;;2.65;1.50;;;;;;;24.87;44.19;102123.78;4712827;30;20044;-85
2022/07/14 07:25:35;;;;;;;2.47;1.60;;;;;;;24.89;43.99;102127.09;4706126;30;20040;-85
2022/07/14 07:28:02;;;;;;;3.55;1.50;;;;;;;24.95;43.77;102133.53;4723702;30;20080;-85
2022/07/14 07:30:28;;;;;;;1.77;1.48;;;;;;;24.96;43.63;102127.22;4722984;30;20064;-84
2022/07/14 07:32:53;;;;;;;2.17;1.60;;;;;;;24.95;43.77;102122.84;4721060;30;20440;-84
2022/07/14 07:35:19;;;;;;;2.17;1.63;;;;;;;24.98;43.73;102127.84;4706091;30;20056;-84
2022/07/14 07:37:45;;;;;;;2.45;1.73;;;;;;;25.02;43.61;102131.00;4719678;30;20056;-84
2022/07/14 07:40:11;;;;;;;1.60;1.38;;;;;;;25.01;43.78;102127.50;4721289;30;20060;-84
2022/07/14 07:42:37;;;;;;;2.42;2.03;;;;;;;24.99;43.56;102125.03;4716154;30;20710;-86
2022/07/14 07:45:03;;;;;;;1.88;1.70;;;;;;;25.04;43.39;102120.97;4721343;30;20210;-84
2022/07/14 07:47:29;;;;;;;2.25;1.55;;;;;;;24.98;43.76;102126.00;4721237;30;20094;-85
2022/07/14 07:49:54;;;;;;;2.67;1.70;;;;;;;25.06;43.60;102116.28;4714345;30;20040;-85
2022/07/14 07:52:20;;;;;;;2.67;1.50;;;;;;;24.98;43.78;102123.34;4721202;30;20053;-87
2022/07/14 07:54:47;;;;;;;5.95;1.55;;;;;;;24.95;42.79;102118.34;4721588;30;20049;-90
2022/07/14 07:57:13;;;;;;;3.35;1.48;;;;;;;24.49;43.13;102117.66;4722480;30;20091;-93
2022/07/14 07:59:39;;;;;;;4.82;1.23;;;;;;;24.64;43.21;102118.53;4719745;30;20076;-89
2022/07/14 08:02:05;;;;;;;5.15;1.77;;;;;;;25.12;42.09;102124.38;4679871;30;20614;-90
2022/07/14 08:04:33;;;;;;;3.33;1.20;;;;;;;25.26;41.28;102110.22;4727980;30;20135;-90
2022/07/14 08:06:59;;;;;;;5.35;2.08;;;;;;;25.38;40.93;102105.25;4721543;30;21230;-91
2022/07/14 08:09:24;;;;;;;4.03;1.45;;;;;;;25.40;40.97;102113.88;4725210;30;20072;-93
2022/07/14 08:11:50;;;;;;;5.38;1.52;;;;;;;25.43;40.80;102102.03;4719160;30;20539;-88
2022/07/14 08:17:01;;;;;;;1.25;1.10;;;;;;;25.41;41.40;102093.38;4694439;30;20055;-93
2022/07/14 08:19:27;;;;;;;3.53;1.40;;;;;;;25.40;41.03;102084.56;4716957;30;20144;-89
2022/07/14 08:21:53;;;;;;;4.28;1.20;;;;;;;25.41;40.90;102082.72;4716771;30;20074;-89
2022/07/14 08:24:18;;;;;;;6.70;1.50;;;;;;;25.52;40.96;102099.06;4715930;30;20053;-89
2022/07/14 08:26:46;;;;;;;4.03;1.45;;;;;;;25.49;40.36;102093.25;4718801;30;20466;-88
2022/07/14 08:29:12;;;;;;;3.42;1.08;;;;;;;25.52;39.93;102084.91;4714241;30;20045;-88
2022/07/14 08:31:38;;;;;;;7.47;1.48;;;;;;;25.52;39.89;102095.59;4702789;30;20941;-88
2022/07/14 08:34:03;;;;;;;3.65;1.25;;;;;;;25.53;39.52;102086.56;4697744;30;20048;-88
2022/07/14 08:36:29;;;;;;;3.88;1.15;;;;;;;25.48;39.66;102076.44;4721412;30;20045;-87
2022/07/14 08:38:55;;;;;;;3.20;1.25;;;;;;;25.48;39.49;102070.28;4726014;30;20405;-89
2022/07/14 08:41:21;;;;;;;4.15;1.23;;;;;;;25.55;39.24;102084.53;4707458;30;20053;-89
2022/07/14 08:43:48;;;;;;;5.93;1.30;;;;;;;25.54;39.26;102077.53;4721436;30;20048;-89
2022/07/14 08:46:14;;;;;;;2.05;0.88;;;;;;;25.54;39.25;102090.88;4712735;30;20465;-88
2022/07/14 08:48:40;;;;;;;6.28;1.40;;;;;;;25.54;39.55;102083.72;4712427;30;20556;-88
2022/07/14 08:51:06;;;;;;;2.25;0.88;;;;;;;25.57;39.34;102075.31;4713732;30;20045;-88
2022/07/14 08:53:33;;;;;;;3.97;0.90;;;;;;;25.43;39.13;102052.19;4726430;30;20126;-88
2022/07/14 08:55:59;;;;;;;2.38;1.25;;;;;;;25.38;38.76;102040.44;4724251;30;20120;-88
2022/07/14 08:58:25;;;;;;;6.07;1.20;;;;;;;25.55;38.77;102071.19;4726518;30;20128;-88
2022/07/14 09:00:51;;;;;;;3.00;1.38;;;;;;;25.52;38.72;102063.56;4724931;30;20060;-88
2022/07/14 09:03:16;;;;;;;5.38;1.20;;;;;;;25.52;38.68;102063.56;4724199;30;20048;-87
2022/07/14 09:05:44;;;;;;;3.70;1.17;;;;;;;25.56;38.88;102073.69;4701349;30;20052;-88
2022/07/14 09:08:11;;;;;;;6.45;1.33;;;;;;;25.57;38.63;102077.16;4722101;30;20055;-88
2022/07/14 09:10:38;;;;;;;4.50;1.33;;;;;;;25.55;38.55;102064.03;4722224;30;20045;-88
2022/07/14 09:13:18;;;;;;;2.80;1.05;;;;;;;25.52;38.75;102068.91;4726122;30;20060;-88
2022/07/14 09:15:45;;;;;;;2.08;1.10;;;;;;;25.53;38.60;102067.91;4722657;30;20152;-88
2022/07/14 09:18:26;;;;;;;1.63;0.82;;;;;;;25.53;38.65;102071.38;4727688;30;20048;-88
2022/07/14 09:20:53;;;;;;;3.33;1.10;;;;;;;25.52;38.86;102072.41;4711428;30;20048;-87
2022/07/14 09:23:31;;;;;;;2.97;1.20;;;;;;;25.55;38.77;102072.03;4713676;30;20095;-87
2022/07/14 09:26:17;;;;;;;2.03;0.88;;;;;;;25.54;38.97;102083.72;4724738;30;20073;-88
2022/07/14 09:28:45;;;;;;;3.85;1.23;;;;;;;25.53;38.67;102075.91;4720746;30;20482;-88
2022/07/14 09:31:28;;;;;;;3.15;1.05;;;;;;;25.50;38.75;102073.63;4719908;30;20126;-88
2022/07/14 09:33:56;;;;;;;3.33;1.13;;;;;;;25.48;38.93;102080.94;4721868;30;20547;-88
2022/07/14 09:36:23;;;;;;;4.13;1.20;;;;;;;25.57;39.41;102079.84;4724424;30;20063;-89
2022/07/14 09:38:49;;;;;;;2.63;1.30;;;;;;;25.61;39.35;102079.25;4700274;30;20598;-86
2022/07/14 09:41:15;;;;;;;4.22;1.10;;;;;;;25.64;39.13;102077.22;4725136;30;20049;-86
2022/07/14 09:44:06;;;;;;;2.47;0.90;;;;;;;25.62;39.44;102080.09;4725091;30;20048;-89
2022/07/14 09:46:50;;;;;;;3.22;1.40;;;;;;;25.67;39.38;102080.34;4734458;30;20708;-88
2022/07/14 09:49:17;;;;;;;2.80;1.00;;;;;;;25.69;39.03;102097.03;4719742;30;20470;-89
2022/07/14 09:52:04;;;;;;;3.15;1.10;;;;;;;25.67;39.01;102099.00;4724764;30;20044;-89
2022/07/14 09:54:39;;;;;;;6.97;1.27;;;;;;;25.71;39.07;102084.34;4712420;30;20061;-88
2022/07/14 09:57:13;;;;;;;3.17;1.00;;;;;;;25.71;39.16;102081.69;4710802;30;20134;-89
2022/07/14 09:59:47;;;;;;;1.38;0.95;;;;;;;25.67;39.38;102066.19;4725906;30;20110;-88
2022/07/14 10:02:19;;;;;;;2.97;1.58;;;;;;;25.71;39.30;102067.50;4723702;30;20488;-87
2022/07/14 10:04:45;;;;;;;1.92;1.10;;;;;;;25.74;39.03;102070.63;4721839;30;20497;-89
2022/07/14 10:07:12;;;;;;;2.38;0.93;;;;;;;25.72;39.36;102063.81;4724569;30;20152;-88
2022/07/14 10:10:07;;;;;;;1.95;0.65;;;;;;;25.77;39.44;102074.75;4721748;30;20057;-89
2022/07/14 10:12:34;;;;;;;1.83;1.13;;;;;;;25.75;39.41;102064.25;4697215;30;20131;-86
2022/07/14 10:15:05;;;;;;;2.35;1.50;;;;;;;25.78;38.97;102071.06;4709138;30;20061;-86
2022/07/14 10:17:31;;;;;;;2.97;1.00;;;;;;;25.76;39.08;102059.75;4720630;30;20466;-89
2022/07/14 10:19:57;;;;;;;2.70;1.10;;;;;;;25.80;38.90;102064.50;4720392;30;20452;-89
2022/07/14 10:22:23;;;;;;;1.30;1.08;;;;;;;25.80;38.68;102061.03;4718444;30;20123;-88
2022/07/14 10:24:50;;;;;;;3.28;1.23;;;;;;;25.81;39.02;102068.84;4736025;30;20091;-89
2022/07/14 10:27:19;;;;;;;2.75;1.05;;;;;;;25.83;39.25;102069.47;4709438;30;20542;-89
2022/07/14 10:29:53;;;;;;;2.20;1.25;;;;;;;25.82;39.52;102067.81;4689876;30;20063;-90
2022/07/14 10:32:30;;;;;;;0.60;0.60;;;;;;;25.87;39.60;102072.59;4718885;30;20858;-89
2022/07/14 10:35:04;;;;;;;2.88;0.95;;;;;;;25.84;39.69;102072.97;4714784;30;20049;-89
2022/07/14 10:38:09;;;;;;;4.28;1.05;;;;;;;25.89;39.83;102076.72;4734540;30;20110;-89
2022/07/14 10:40:56;;;;;;;2.45;1.23;;;;;;;25.90;39.79;102073.03;4721497;30;20040;-88
2022/07/14 10:43:37;;;;;;;2.47;0.95;;;;;;;25.89;39.64;102082.06;4708353;30;20075;-88
2022/07/14 10:46:03;;;;;;;2.22;0.95;;;;;;;25.87;39.23;102070.75;4717226;30;20048;-87
2022/07/14 10:48:32;;;;;;;3.00;1.02;;;;;;;25.89;39.24;102071.41;4714978;30;20084;-87
2022/07/14 10:51:17;;;;;;;1.33;0.65;;;;;;;25.88;39.24;102069.75;4720338;30;20040;-88
2022/07/14 10:54:06;;;;;;;1.75;1.00;;;;;;;25.88;39.24;102069.75;4717876;30;21405;-87
2022/07/14 10:56:32;;;;;;;1.77;0.87;;;;;;;25.92;39.15;102062.19;4711562;30;20746;-87
2022/07/14 10:59:26;;;;;;;2.83;1.30;;;;;;;25.91;38.97;102068.53;4701810;30;20032;-87
2022/07/14 11:04:59;;;;;;;5.85;1.02;;;;;;;25.88;39.19;102064.41;4716173;30;20057;-88
2022/07/14 11:07:40;;;;;;;1.17;1.00;;;;;;;26.00;39.28;102050.53;4721064;30;20056;-86
2022/07/14 11:10:14;;;;;;;3.38;1.00;;;;;;;26.17;39.79;102066.09;4738013;30;20492;-88
2022/07/14 11:13:05;;;;;;;2.47;1.23;;;;;;;26.26;39.81;102061.47;4717553;30;20496;-88
2022/07/14 11:15:40;;;;;;;2.90;1.05;;;;;;;26.34;39.75;102060.47;4670650;30;1113673;-86
2022/07/14 11:18:18;;;;;;;1.58;0.90;;;;;;;26.38;39.54;102065.25;4726272;30;20054;-86
2022/07/14 11:21:01;;;;;;;3.90;1.00;;;;;;;26.46;39.61;102065.13;4723085;30;20056;-90
2022/07/14 11:23:30;;;;;;;2.88;1.13;;;;;;;26.53;39.70;102067.03;4717038;30;20037;-89
2022/07/14 11:25:57;;;;;;;1.08;0.85;;;;;;;26.56;39.43;102070.13;4726719;30;20351;-87
2022/07/14 11:28:31;;;;;;;1.77;1.10;;;;;;;26.62;39.56;102065.88;4719971;30;20100;-90
2022/07/14 11:31:22;;;;;;;3.38;1.00;;;;;;;26.66;39.64;102073.28;4714132;30;20349;-89
2022/07/14 11:36:59;;;;;;;2.58;1.00;;;;;;;26.65;39.82;102063.63;4735947;30;21297;-84
2022/07/14 11:39:34;;;;;;;1.58;1.02;;;;;;;26.74;39.68;102078.47;4726060;30;20585;-86
2022/07/14 11:42:03;;;;;;;1.38;0.77;;;;;;;26.73;39.83;102076.81;4719956;30;20135;-85
2022/07/14 11:44:43;;;;;;;5.35;1.10;;;;;;;26.78;40.01;102073.56;4719675;30;20542;-85
2022/07/14 11:47:09;;;;;;;5.53;1.20;;;;;;;26.83;40.16;102078.31;4708683;30;20037;-84
2022/07/14 11:49:37;;;;;;;1.65;1.25;;;;;;;26.87;39.77;102067.03;4714861;30;20179;-85
2022/07/14 11:52:05;;;;;;;2.10;1.15;;;;;;;26.86;40.02;102065.38;4723949;30;20060;-85